sensor_id;sensor_type;location;lat;lon;timestamp;P1;durP1;ratioP1;P2;durP2;ratioP2
57800;SDS011;43627;42.728;23.256;2023-05-07T00:00:24;4.57;;;2.58;;
57800;SDS011;43627;42.728;23.256;2023-05-07T00:02:52;6.55;;;3.15;;
57800;SDS011;43627;42.728;23.256;2023-05-07T00:05:19;5.38;;;2.85;;
57800;SDS011;43627;42.728;23.256;2023-05-07T00:07:46;6.18;;;2.92;;
57800;SDS011;43627;42.728;23.256;2023-05-07T00:10:13;5.43;;;3.28;;
57800;SDS011;43627;42.728;23.256;2023-05-07T00:12:40;6.57;;;2.83;;
57800;SDS011;43627;42.728;23.256;2023-05-07T00:15:07;4.97;;;2.85;;
57800;SDS011;43627;42.728;23.256;2023-05-07T00:17:34;5.45;;;3.13;;
57800;SDS011;43627;42.728;23.256;2023-05-07T00:20:02;4.72;;;2.78;;
57800;SDS011;43627;42.728;23.256;2023-05-07T00:22:30;7.97;;;3.67;;
57800;SDS011;43627;42.728;23.256;2023-05-07T00:24:58;5.05;;;3.08;;
57800;SDS011;43627;42.728;23.256;2023-05-07T00:27:25;5.57;;;3.25;;
57800;SDS011;43627;42.728;23.256;2023-05-07T00:29:52;5.68;;;3.65;;
57800;SDS011;43627;42.728;23.256;2023-05-07T00:32:18;5.72;;;2.53;;
57800;SDS011;43627;42.728;23.256;2023-05-07T00:34:45;11.32;;;3.25;;
57800;SDS011;43627;42.728;23.256;2023-05-07T00:37:12;3.10;;;2.38;;
57800;SDS011;43627;42.728;23.256;2023-05-07T00:39:39;4.93;;;2.80;;
57800;SDS011;43627;42.728;23.256;2023-05-07T00:42:06;5.00;;;2.92;;
57800;SDS011;43627;42.728;23.256;2023-05-07T00:44:32;4.75;;;3.08;;
57800;SDS011;43627;42.728;23.256;2023-05-07T00:46:59;5.68;;;3.05;;
57800;SDS011;43627;42.728;23.256;2023-05-07T00:50:02;10.07;;;3.88;;
57800;SDS011;43627;42.728;23.256;2023-05-07T00:52:23;3.83;;;2.55;;
57800;SDS011;43627;42.728;23.256;2023-05-07T00:54:52;7.30;;;3.40;;
57800;SDS011;43627;42.728;23.256;2023-05-07T00:57:21;5.03;;;2.90;;
57800;SDS011;43627;42.728;23.256;2023-05-07T01:02:20;5.50;;;3.28;;
57800;SDS011;43627;42.728;23.256;2023-05-07T01:04:54;5.45;;;2.83;;
57800;SDS011;43627;42.728;23.256;2023-05-07T01:07:22;5.00;;;3.45;;
57800;SDS011;43627;42.728;23.256;2023-05-07T01:09:49;6.88;;;3.20;;
57800;SDS011;43627;42.728;23.256;2023-05-07T01:12:16;5.13;;;2.70;;
57800;SDS011;43627;42.728;23.256;2023-05-07T01:14:43;6.07;;;2.83;;
57800;SDS011;43627;42.728;23.256;2023-05-07T01:17:10;4.47;;;2.85;;
57800;SDS011;43627;42.728;23.256;2023-05-07T01:19:36;4.22;;;2.72;;
57800;SDS011;43627;42.728;23.256;2023-05-07T01:22:06;5.85;;;2.92;;
57800;SDS011;43627;42.728;23.256;2023-05-07T01:24:35;5.05;;;3.13;;
57800;SDS011;43627;42.728;23.256;2023-05-07T01:27:03;5.93;;;3.67;;
57800;SDS011;43627;42.728;23.256;2023-05-07T01:29:30;5.15;;;3.10;;
57800;SDS011;43627;42.728;23.256;2023-05-07T01:31:57;10.75;;;3.00;;
57800;SDS011;43627;42.728;23.256;2023-05-07T01:34:27;5.93;;;2.58;;
57800;SDS011;43627;42.728;23.256;2023-05-07T01:36:56;4.80;;;2.70;;
57800;SDS011;43627;42.728;23.256;2023-05-07T01:39:26;3.97;;;2.78;;
57800;SDS011;43627;42.728;23.256;2023-05-07T01:41:54;5.15;;;2.65;;
57800;SDS011;43627;42.728;23.256;2023-05-07T01:44:22;7.43;;;3.22;;
57800;SDS011;43627;42.728;23.256;2023-05-07T01:46:49;4.85;;;2.90;;
57800;SDS011;43627;42.728;23.256;2023-05-07T01:49:16;6.47;;;3.67;;
57800;SDS011;43627;42.728;23.256;2023-05-07T01:51:44;4.90;;;3.47;;
57800;SDS011;43627;42.728;23.256;2023-05-07T01:54:11;4.63;;;3.03;;
57800;SDS011;43627;42.728;23.256;2023-05-07T01:56:37;5.15;;;3.45;;
57800;SDS011;43627;42.728;23.256;2023-05-07T01:59:04;6.97;;;3.20;;
57800;SDS011;43627;42.728;23.256;2023-05-07T02:01:31;4.03;;;2.75;;
57800;SDS011;43627;42.728;23.256;2023-05-07T02:03:58;8.82;;;3.60;;
57800;SDS011;43627;42.728;23.256;2023-05-07T02:06:25;9.40;;;3.63;;
57800;SDS011;43627;42.728;23.256;2023-05-07T02:08:51;4.95;;;3.40;;
57800;SDS011;43627;42.728;23.256;2023-05-07T02:11:18;5.07;;;3.47;;
57800;SDS011;43627;42.728;23.256;2023-05-07T02:13:45;6.28;;;3.63;;
57800;SDS011;43627;42.728;23.256;2023-05-07T02:16:11;4.50;;;2.92;;
57800;SDS011;43627;42.728;23.256;2023-05-07T02:18:40;6.78;;;3.50;;
57800;SDS011;43627;42.728;23.256;2023-05-07T02:21:07;3.72;;;2.30;;
57800;SDS011;43627;42.728;23.256;2023-05-07T02:23:34;5.03;;;2.97;;
57800;SDS011;43627;42.728;23.256;2023-05-07T02:26:01;6.53;;;3.78;;
57800;SDS011;43627;42.728;23.256;2023-05-07T02:28:27;5.22;;;3.30;;
57800;SDS011;43627;42.728;23.256;2023-05-07T02:33:19;5.85;;;3.47;;
57800;SDS011;43627;42.728;23.256;2023-05-07T02:35:46;8.00;;;3.38;;
57800;SDS011;43627;42.728;23.256;2023-05-07T02:38:13;7.70;;;4.20;;
57800;SDS011;43627;42.728;23.256;2023-05-07T02:40:39;13.80;;;3.55;;
57800;SDS011;43627;42.728;23.256;2023-05-07T02:43:06;4.40;;;2.75;;
57800;SDS011;43627;42.728;23.256;2023-05-07T02:45:33;4.95;;;2.85;;
57800;SDS011;43627;42.728;23.256;2023-05-07T02:48:00;5.22;;;2.85;;
57800;SDS011;43627;42.728;23.256;2023-05-07T02:50:27;7.25;;;3.17;;
57800;SDS011;43627;42.728;23.256;2023-05-07T02:52:53;7.15;;;4.05;;
57800;SDS011;43627;42.728;23.256;2023-05-07T02:55:21;5.05;;;2.85;;
57800;SDS011;43627;42.728;23.256;2023-05-07T02:57:47;5.45;;;3.05;;
57800;SDS011;43627;42.728;23.256;2023-05-07T03:00:15;6.07;;;3.38;;
57800;SDS011;43627;42.728;23.256;2023-05-07T03:02:44;7.28;;;3.67;;
57800;SDS011;43627;42.728;23.256;2023-05-07T03:05:11;5.93;;;3.58;;
57800;SDS011;43627;42.728;23.256;2023-05-07T03:07:38;8.68;;;3.55;;
57800;SDS011;43627;42.728;23.256;2023-05-07T03:10:05;4.85;;;3.03;;
57800;SDS011;43627;42.728;23.256;2023-05-07T03:12:32;5.22;;;3.30;;
57800;SDS011;43627;42.728;23.256;2023-05-07T03:14:59;6.13;;;3.08;;
57800;SDS011;43627;42.728;23.256;2023-05-07T03:17:25;4.93;;;3.38;;
57800;SDS011;43627;42.728;23.256;2023-05-07T03:19:52;4.30;;;3.38;;
57800;SDS011;43627;42.728;23.256;2023-05-07T03:22:19;6.72;;;4.20;;
57800;SDS011;43627;42.728;23.256;2023-05-07T03:24:46;7.97;;;3.35;;
57800;SDS011;43627;42.728;23.256;2023-05-07T03:27:13;8.23;;;3.80;;
57800;SDS011;43627;42.728;23.256;2023-05-07T03:29:40;6.13;;;3.70;;
57800;SDS011;43627;42.728;23.256;2023-05-07T03:32:06;4.78;;;3.33;;
57800;SDS011;43627;42.728;23.256;2023-05-07T03:34:33;5.63;;;3.65;;
57800;SDS011;43627;42.728;23.256;2023-05-07T03:37:00;6.30;;;3.55;;
57800;SDS011;43627;42.728;23.256;2023-05-07T03:39:27;6.65;;;3.67;;
57800;SDS011;43627;42.728;23.256;2023-05-07T03:41:53;6.75;;;4.10;;
57800;SDS011;43627;42.728;23.256;2023-05-07T03:44:20;5.70;;;4.22;;
57800;SDS011;43627;42.728;23.256;2023-05-07T03:46:47;5.82;;;3.97;;
57800;SDS011;43627;42.728;23.256;2023-05-07T03:49:13;9.43;;;4.75;;
57800;SDS011;43627;42.728;23.256;2023-05-07T03:51:40;5.20;;;3.75;;
57800;SDS011;43627;42.728;23.256;2023-05-07T03:54:07;5.75;;;3.80;;
57800;SDS011;43627;42.728;23.256;2023-05-07T03:56:34;6.78;;;3.83;;
57800;SDS011;43627;42.728;23.256;2023-05-07T03:59:01;7.22;;;3.97;;
57800;SDS011;43627;42.728;23.256;2023-05-07T04:01:27;4.68;;;3.63;;
57800;SDS011;43627;42.728;23.256;2023-05-07T04:03:54;4.07;;;3.40;;
57800;SDS011;43627;42.728;23.256;2023-05-07T04:06:21;4.68;;;3.28;;
57800;SDS011;43627;42.728;23.256;2023-05-07T04:08:48;6.90;;;4.05;;
57800;SDS011;43627;42.728;23.256;2023-05-07T04:11:15;5.68;;;3.15;;
57800;SDS011;43627;42.728;23.256;2023-05-07T04:13:42;6.28;;;3.92;;
57800;SDS011;43627;42.728;23.256;2023-05-07T04:16:08;4.78;;;3.08;;
57800;SDS011;43627;42.728;23.256;2023-05-07T04:18:35;6.18;;;2.90;;
57800;SDS011;43627;42.728;23.256;2023-05-07T04:21:02;22.42;;;3.42;;
57800;SDS011;43627;42.728;23.256;2023-05-07T04:23:29;9.10;;;3.88;;
57800;SDS011;43627;42.728;23.256;2023-05-07T04:25:56;5.75;;;2.78;;
57800;SDS011;43627;42.728;23.256;2023-05-07T04:28:23;7.07;;;3.63;;
57800;SDS011;43627;42.728;23.256;2023-05-07T04:30:50;6.22;;;3.60;;
57800;SDS011;43627;42.728;23.256;2023-05-07T04:33:17;8.60;;;3.63;;
57800;SDS011;43627;42.728;23.256;2023-05-07T04:35:44;15.05;;;3.75;;
57800;SDS011;43627;42.728;23.256;2023-05-07T04:38:11;7.25;;;2.85;;
57800;SDS011;43627;42.728;23.256;2023-05-07T04:40:37;8.30;;;4.20;;
57800;SDS011;43627;42.728;23.256;2023-05-07T04:43:07;5.85;;;2.90;;
57800;SDS011;43627;42.728;23.256;2023-05-07T04:45:35;4.57;;;2.75;;
57800;SDS011;43627;42.728;23.256;2023-05-07T04:48:06;4.68;;;3.17;;
57800;SDS011;43627;42.728;23.256;2023-05-07T04:50:33;3.42;;;2.42;;
57800;SDS011;43627;42.728;23.256;2023-05-07T04:53:00;2.90;;;2.22;;
57800;SDS011;43627;42.728;23.256;2023-05-07T04:55:27;4.63;;;2.53;;
57800;SDS011;43627;42.728;23.256;2023-05-07T04:57:53;4.57;;;3.20;;
57800;SDS011;43627;42.728;23.256;2023-05-07T05:00:20;2.55;;;2.00;;
57800;SDS011;43627;42.728;23.256;2023-05-07T05:02:47;2.70;;;2.15;;
57800;SDS011;43627;42.728;23.256;2023-05-07T05:05:14;4.88;;;2.65;;
57800;SDS011;43627;42.728;23.256;2023-05-07T05:07:41;2.70;;;1.88;;
57800;SDS011;43627;42.728;23.256;2023-05-07T05:10:10;5.82;;;2.90;;
57800;SDS011;43627;42.728;23.256;2023-05-07T05:12:39;3.22;;;2.17;;
57800;SDS011;43627;42.728;23.256;2023-05-07T05:15:06;3.90;;;2.60;;
57800;SDS011;43627;42.728;23.256;2023-05-07T05:17:34;4.40;;;2.67;;
57800;SDS011;43627;42.728;23.256;2023-05-07T05:20:02;3.30;;;2.42;;
57800;SDS011;43627;42.728;23.256;2023-05-07T05:22:29;4.35;;;2.67;;
57800;SDS011;43627;42.728;23.256;2023-05-07T05:24:57;4.35;;;2.83;;
57800;SDS011;43627;42.728;23.256;2023-05-07T05:27:23;5.30;;;3.20;;
57800;SDS011;43627;42.728;23.256;2023-05-07T05:29:50;5.18;;;2.70;;
57800;SDS011;43627;42.728;23.256;2023-05-07T05:32:17;4.30;;;2.50;;
57800;SDS011;43627;42.728;23.256;2023-05-07T05:34:43;3.80;;;2.42;;
57800;SDS011;43627;42.728;23.256;2023-05-07T05:37:10;4.93;;;2.75;;
57800;SDS011;43627;42.728;23.256;2023-05-07T05:39:37;4.72;;;3.10;;
57800;SDS011;43627;42.728;23.256;2023-05-07T05:42:04;4.32;;;3.13;;
57800;SDS011;43627;42.728;23.256;2023-05-07T05:44:32;4.25;;;2.85;;
57800;SDS011;43627;42.728;23.256;2023-05-07T05:46:58;3.90;;;2.65;;
57800;SDS011;43627;42.728;23.256;2023-05-07T05:49:25;4.80;;;3.10;;
57800;SDS011;43627;42.728;23.256;2023-05-07T05:51:52;5.20;;;3.42;;
57800;SDS011;43627;42.728;23.256;2023-05-07T05:54:19;7.07;;;3.08;;
57800;SDS011;43627;42.728;23.256;2023-05-07T05:56:45;4.55;;;2.60;;
57800;SDS011;43627;42.728;23.256;2023-05-07T05:59:12;4.75;;;3.10;;
57800;SDS011;43627;42.728;23.256;2023-05-07T06:01:39;4.85;;;2.92;;
57800;SDS011;43627;42.728;23.256;2023-05-07T06:04:06;3.97;;;2.40;;
57800;SDS011;43627;42.728;23.256;2023-05-07T06:06:32;4.68;;;3.20;;
57800;SDS011;43627;42.728;23.256;2023-05-07T06:08:59;3.97;;;3.10;;
57800;SDS011;43627;42.728;23.256;2023-05-07T06:11:26;4.72;;;3.25;;
57800;SDS011;43627;42.728;23.256;2023-05-07T06:13:52;6.95;;;3.63;;
57800;SDS011;43627;42.728;23.256;2023-05-07T06:16:19;3.45;;;2.60;;
57800;SDS011;43627;42.728;23.256;2023-05-07T06:18:46;5.30;;;3.28;;
57800;SDS011;43627;42.728;23.256;2023-05-07T06:21:13;2.95;;;2.55;;
57800;SDS011;43627;42.728;23.256;2023-05-07T06:23:40;6.22;;;2.92;;
57800;SDS011;43627;42.728;23.256;2023-05-07T06:26:07;5.45;;;3.33;;
57800;SDS011;43627;42.728;23.256;2023-05-07T06:28:34;4.90;;;3.53;;
57800;SDS011;43627;42.728;23.256;2023-05-07T06:31:12;5.05;;;3.08;;
57800;SDS011;43627;42.728;23.256;2023-05-07T06:33:39;4.65;;;3.22;;
57800;SDS011;43627;42.728;23.256;2023-05-07T06:36:07;5.85;;;3.72;;
57800;SDS011;43627;42.728;23.256;2023-05-07T06:38:33;4.70;;;3.15;;
57800;SDS011;43627;42.728;23.256;2023-05-07T06:41:00;4.55;;;3.65;;
57800;SDS011;43627;42.728;23.256;2023-05-07T06:43:27;5.43;;;3.05;;
57800;SDS011;43627;42.728;23.256;2023-05-07T06:45:54;4.65;;;3.05;;
57800;SDS011;43627;42.728;23.256;2023-05-07T06:48:28;5.32;;;2.95;;
57800;SDS011;43627;42.728;23.256;2023-05-07T06:50:55;4.97;;;3.13;;
57800;SDS011;43627;42.728;23.256;2023-05-07T06:53:24;7.40;;;3.50;;
57800;SDS011;43627;42.728;23.256;2023-05-07T06:55:52;9.02;;;5.22;;
57800;SDS011;43627;42.728;23.256;2023-05-07T06:58:18;7.32;;;4.47;;
57800;SDS011;43627;42.728;23.256;2023-05-07T07:00:45;6.43;;;4.50;;
57800;SDS011;43627;42.728;23.256;2023-05-07T07:03:12;5.53;;;3.25;;
57800;SDS011;43627;42.728;23.256;2023-05-07T07:05:40;6.50;;;3.30;;
57800;SDS011;43627;42.728;23.256;2023-05-07T07:08:09;5.15;;;3.55;;
57800;SDS011;43627;42.728;23.256;2023-05-07T07:10:36;6.28;;;4.03;;
57800;SDS011;43627;42.728;23.256;2023-05-07T07:13:05;5.07;;;3.15;;
57800;SDS011;43627;42.728;23.256;2023-05-07T07:15:32;6.13;;;3.72;;
57800;SDS011;43627;42.728;23.256;2023-05-07T07:17:59;5.10;;;3.50;;
57800;SDS011;43627;42.728;23.256;2023-05-07T07:20:26;4.88;;;2.95;;
57800;SDS011;43627;42.728;23.256;2023-05-07T07:23:04;5.80;;;4.05;;
57800;SDS011;43627;42.728;23.256;2023-05-07T07:25:31;5.45;;;3.72;;
57800;SDS011;43627;42.728;23.256;2023-05-07T07:27:58;4.57;;;3.13;;
57800;SDS011;43627;42.728;23.256;2023-05-07T07:30:25;6.20;;;3.70;;
57800;SDS011;43627;42.728;23.256;2023-05-07T07:32:53;4.88;;;3.88;;
57800;SDS011;43627;42.728;23.256;2023-05-07T07:35:21;4.72;;;3.35;;
57800;SDS011;43627;42.728;23.256;2023-05-07T07:37:48;4.75;;;3.17;;
57800;SDS011;43627;42.728;23.256;2023-05-07T07:40:16;5.85;;;3.35;;
57800;SDS011;43627;42.728;23.256;2023-05-07T07:42:48;5.80;;;3.05;;
57800;SDS011;43627;42.728;23.256;2023-05-07T07:45:15;2.67;;;2.38;;
57800;SDS011;43627;42.728;23.256;2023-05-07T07:47:42;5.30;;;2.92;;
57800;SDS011;43627;42.728;23.256;2023-05-07T07:50:09;3.75;;;2.95;;
57800;SDS011;43627;42.728;23.256;2023-05-07T07:52:45;4.55;;;3.22;;
57800;SDS011;43627;42.728;23.256;2023-05-07T07:55:12;4.18;;;2.63;;
57800;SDS011;43627;42.728;23.256;2023-05-07T07:57:39;5.60;;;3.10;;
57800;SDS011;43627;42.728;23.256;2023-05-07T08:00:06;3.90;;;2.72;;
57800;SDS011;43627;42.728;23.256;2023-05-07T08:02:34;5.63;;;3.10;;
57800;SDS011;43627;42.728;23.256;2023-05-07T08:05:04;4.03;;;2.95;;
57800;SDS011;43627;42.728;23.256;2023-05-07T08:07:31;19.27;;;12.35;;
57800;SDS011;43627;42.728;23.256;2023-05-07T08:09:58;3.63;;;2.63;;
57800;SDS011;43627;42.728;23.256;2023-05-07T08:12:25;2.97;;;2.35;;
57800;SDS011;43627;42.728;23.256;2023-05-07T08:14:52;4.10;;;2.63;;
57800;SDS011;43627;42.728;23.256;2023-05-07T08:17:18;4.63;;;2.78;;
57800;SDS011;43627;42.728;23.256;2023-05-07T08:19:48;3.17;;;2.33;;
57800;SDS011;43627;42.728;23.256;2023-05-07T08:22:15;2.35;;;1.92;;
57800;SDS011;43627;42.728;23.256;2023-05-07T08:24:44;3.45;;;2.20;;
57800;SDS011;43627;42.728;23.256;2023-05-07T08:27:11;2.80;;;1.90;;
57800;SDS011;43627;42.728;23.256;2023-05-07T08:29:38;4.72;;;2.70;;
57800;SDS011;43627;42.728;23.256;2023-05-07T08:32:07;3.13;;;2.45;;
57800;SDS011;43627;42.728;23.256;2023-05-07T08:34:34;2.60;;;2.20;;
57800;SDS011;43627;42.728;23.256;2023-05-07T08:37:01;4.40;;;2.20;;
57800;SDS011;43627;42.728;23.256;2023-05-07T08:39:31;5.03;;;2.42;;
57800;SDS011;43627;42.728;23.256;2023-05-07T08:41:58;3.97;;;2.20;;
57800;SDS011;43627;42.728;23.256;2023-05-07T08:44:28;4.25;;;2.17;;
57800;SDS011;43627;42.728;23.256;2023-05-07T08:47:01;2.97;;;1.77;;
57800;SDS011;43627;42.728;23.256;2023-05-07T08:49:28;3.50;;;1.92;;
57800;SDS011;43627;42.728;23.256;2023-05-07T08:51:56;3.45;;;2.28;;
57800;SDS011;43627;42.728;23.256;2023-05-07T08:54:22;3.60;;;2.25;;
57800;SDS011;43627;42.728;23.256;2023-05-07T08:56:51;3.95;;;2.17;;
57800;SDS011;43627;42.728;23.256;2023-05-07T08:59:20;2.58;;;2.08;;
57800;SDS011;43627;42.728;23.256;2023-05-07T09:01:47;4.28;;;2.03;;
57800;SDS011;43627;42.728;23.256;2023-05-07T09:04:15;7.07;;;1.75;;
57800;SDS011;43627;42.728;23.256;2023-05-07T09:06:42;2.60;;;1.42;;
57800;SDS011;43627;42.728;23.256;2023-05-07T09:09:19;2.53;;;1.70;;
57800;SDS011;43627;42.728;23.256;2023-05-07T09:11:56;2.90;;;1.85;;
57800;SDS011;43627;42.728;23.256;2023-05-07T09:14:29;2.03;;;1.40;;
57800;SDS011;43627;42.728;23.256;2023-05-07T09:16:56;2.40;;;1.88;;
57800;SDS011;43627;42.728;23.256;2023-05-07T09:19:31;2.38;;;1.50;;
57800;SDS011;43627;42.728;23.256;2023-05-07T09:22:01;2.97;;;1.85;;
57800;SDS011;43627;42.728;23.256;2023-05-07T09:24:30;4.00;;;1.70;;
57800;SDS011;43627;42.728;23.256;2023-05-07T09:27:01;2.40;;;1.70;;
57800;SDS011;43627;42.728;23.256;2023-05-07T09:29:29;1.70;;;1.60;;
57800;SDS011;43627;42.728;23.256;2023-05-07T09:31:56;2.58;;;1.52;;
57800;SDS011;43627;42.728;23.256;2023-05-07T09:34:26;1.67;;;1.30;;
57800;SDS011;43627;42.728;23.256;2023-05-07T09:36:53;2.33;;;1.45;;
57800;SDS011;43627;42.728;23.256;2023-05-07T09:39:25;2.15;;;1.50;;
57800;SDS011;43627;42.728;23.256;2023-05-07T09:41:52;2.00;;;1.85;;
57800;SDS011;43627;42.728;23.256;2023-05-07T09:44:21;5.35;;;2.00;;
57800;SDS011;43627;42.728;23.256;2023-05-07T09:46:53;3.78;;;1.73;;
57800;SDS011;43627;42.728;23.256;2023-05-07T09:49:28;1.75;;;1.30;;
57800;SDS011;43627;42.728;23.256;2023-05-07T09:51:57;3.88;;;1.88;;
57800;SDS011;43627;42.728;23.256;2023-05-07T09:54:26;1.75;;;1.33;;
57800;SDS011;43627;42.728;23.256;2023-05-07T09:56:57;2.20;;;1.40;;
57800;SDS011;43627;42.728;23.256;2023-05-07T09:59:25;2.58;;;1.50;;
57800;SDS011;43627;42.728;23.256;2023-05-07T10:01:56;2.03;;;1.45;;
57800;SDS011;43627;42.728;23.256;2023-05-07T10:04:26;1.67;;;1.42;;
57800;SDS011;43627;42.728;23.256;2023-05-07T10:06:53;1.75;;;1.35;;
57800;SDS011;43627;42.728;23.256;2023-05-07T10:09:22;5.35;;;1.65;;
57800;SDS011;43627;42.728;23.256;2023-05-07T10:11:49;1.60;;;1.45;;
57800;SDS011;43627;42.728;23.256;2023-05-07T10:14:17;2.20;;;1.27;;
57800;SDS011;43627;42.728;23.256;2023-05-07T10:19:16;2.55;;;1.63;;
57800;SDS011;43627;42.728;23.256;2023-05-07T10:21:44;1.90;;;1.55;;
57800;SDS011;43627;42.728;23.256;2023-05-07T10:24:30;1.25;;;1.08;;
57800;SDS011;43627;42.728;23.256;2023-05-07T10:27:00;1.30;;;1.20;;
57800;SDS011;43627;42.728;23.256;2023-05-07T10:29:37;1.42;;;1.17;;
57800;SDS011;43627;42.728;23.256;2023-05-07T10:35:02;1.33;;;1.05;;
57800;SDS011;43627;42.728;23.256;2023-05-07T10:37:32;1.10;;;0.88;;
57800;SDS011;43627;42.728;23.256;2023-05-07T10:40:00;1.10;;;0.98;;
57800;SDS011;43627;42.728;23.256;2023-05-07T10:42:28;1.90;;;0.77;;
57800;SDS011;43627;42.728;23.256;2023-05-07T10:44:55;0.82;;;0.82;;
57800;SDS011;43627;42.728;23.256;2023-05-07T10:47:23;1.25;;;1.00;;
57800;SDS011;43627;42.728;23.256;2023-05-07T10:52:22;0.90;;;0.90;;
57800;SDS011;43627;42.728;23.256;2023-05-07T10:57:41;1.52;;;1.15;;
57800;SDS011;43627;42.728;23.256;2023-05-07T11:03:04;2.33;;;1.38;;
57800;SDS011;43627;42.728;23.256;2023-05-07T11:05:34;2.28;;;1.10;;
57800;SDS011;43627;42.728;23.256;2023-05-07T11:08:04;2.65;;;1.17;;
57800;SDS011;43627;42.728;23.256;2023-05-07T11:10:47;2.38;;;1.65;;
57800;SDS011;43627;42.728;23.256;2023-05-07T11:13:42;0.80;;;0.80;;
57800;SDS011;43627;42.728;23.256;2023-05-07T11:16:19;0.93;;;0.80;;
57800;SDS011;43627;42.728;23.256;2023-05-07T11:18:56;2.10;;;0.93;;
57800;SDS011;43627;42.728;23.256;2023-05-07T11:24:00;2.38;;;1.13;;
57800;SDS011;43627;42.728;23.256;2023-05-07T11:26:29;1.30;;;1.17;;
57800;SDS011;43627;42.728;23.256;2023-05-07T11:28:59;1.38;;;0.90;;
57800;SDS011;43627;42.728;23.256;2023-05-07T11:31:27;1.75;;;0.93;;
57800;SDS011;43627;42.728;23.256;2023-05-07T11:33:56;2.90;;;1.30;;
57800;SDS011;43627;42.728;23.256;2023-05-07T11:36:24;1.08;;;0.98;;
57800;SDS011;43627;42.728;23.256;2023-05-07T11:38:52;1.83;;;1.02;;
57800;SDS011;43627;42.728;23.256;2023-05-07T11:41:19;1.33;;;0.90;;
57800;SDS011;43627;42.728;23.256;2023-05-07T11:43:54;1.13;;;1.00;;
57800;SDS011;43627;42.728;23.256;2023-05-07T11:46:24;0.88;;;0.85;;
57800;SDS011;43627;42.728;23.256;2023-05-07T11:48:51;1.25;;;1.00;;
57800;SDS011;43627;42.728;23.256;2023-05-07T11:51:19;1.20;;;1.10;;
57800;SDS011;43627;42.728;23.256;2023-05-07T11:53:47;1.75;;;1.35;;
57800;SDS011;43627;42.728;23.256;2023-05-07T11:56:16;1.08;;;0.93;;
57800;SDS011;43627;42.728;23.256;2023-05-07T11:58:44;1.58;;;1.15;;
57800;SDS011;43627;42.728;23.256;2023-05-07T12:01:13;1.02;;;0.90;;
57800;SDS011;43627;42.728;23.256;2023-05-07T12:03:42;1.23;;;1.00;;
57800;SDS011;43627;42.728;23.256;2023-05-07T12:06:15;1.35;;;1.08;;
57800;SDS011;43627;42.728;23.256;2023-05-07T12:08:46;2.53;;;0.80;;
57800;SDS011;43627;42.728;23.256;2023-05-07T12:11:22;2.53;;;0.98;;
57800;SDS011;43627;42.728;23.256;2023-05-07T12:13:49;1.08;;;0.98;;
57800;SDS011;43627;42.728;23.256;2023-05-07T12:16:19;1.75;;;1.23;;
57800;SDS011;43627;42.728;23.256;2023-05-07T12:18:50;1.33;;;1.10;;
57800;SDS011;43627;42.728;23.256;2023-05-07T12:21:19;1.73;;;0.95;;
57800;SDS011;43627;42.728;23.256;2023-05-07T12:23:46;1.00;;;0.90;;
57800;SDS011;43627;42.728;23.256;2023-05-07T12:26:14;0.95;;;0.80;;
57800;SDS011;43627;42.728;23.256;2023-05-07T12:28:41;3.28;;;1.00;;
57800;SDS011;43627;42.728;23.256;2023-05-07T12:31:10;2.20;;;1.23;;
57800;SDS011;43627;42.728;23.256;2023-05-07T12:33:38;1.35;;;0.93;;
57800;SDS011;43627;42.728;23.256;2023-05-07T12:36:06;0.77;;;0.75;;
57800;SDS011;43627;42.728;23.256;2023-05-07T12:38:35;1.52;;;1.20;;
57800;SDS011;43627;42.728;23.256;2023-05-07T12:41:03;0.82;;;0.55;;
57800;SDS011;43627;42.728;23.256;2023-05-07T12:43:31;1.20;;;1.08;;
57800;SDS011;43627;42.728;23.256;2023-05-07T12:46:03;1.50;;;1.10;;
57800;SDS011;43627;42.728;23.256;2023-05-07T12:48:32;1.42;;;0.88;;
57800;SDS011;43627;42.728;23.256;2023-05-07T12:51:00;0.80;;;0.80;;
57800;SDS011;43627;42.728;23.256;2023-05-07T12:53:28;1.15;;;1.05;;
57800;SDS011;43627;42.728;23.256;2023-05-07T12:55:57;0.60;;;0.60;;
57800;SDS011;43627;42.728;23.256;2023-05-07T12:58:28;1.08;;;0.90;;
57800;SDS011;43627;42.728;23.256;2023-05-07T13:00:58;0.98;;;0.80;;
57800;SDS011;43627;42.728;23.256;2023-05-07T13:03:28;1.23;;;1.13;;
57800;SDS011;43627;42.728;23.256;2023-05-07T13:06:04;0.88;;;0.88;;
57800;SDS011;43627;42.728;23.256;2023-05-07T13:08:36;1.48;;;1.30;;
57800;SDS011;43627;42.728;23.256;2023-05-07T13:11:07;3.88;;;2.65;;
57800;SDS011;43627;42.728;23.256;2023-05-07T13:13:35;1.20;;;1.00;;
57800;SDS011;43627;42.728;23.256;2023-05-07T13:16:03;2.13;;;1.10;;
57800;SDS011;43627;42.728;23.256;2023-05-07T13:18:32;1.15;;;0.98;;
57800;SDS011;43627;42.728;23.256;2023-05-07T13:21:00;0.95;;;0.82;;
57800;SDS011;43627;42.728;23.256;2023-05-07T13:23:28;2.25;;;1.38;;
57800;SDS011;43627;42.728;23.256;2023-05-07T13:25:55;1.17;;;0.88;;
57800;SDS011;43627;42.728;23.256;2023-05-07T13:28:26;0.80;;;0.80;;
57800;SDS011;43627;42.728;23.256;2023-05-07T13:30:53;2.03;;;1.33;;
57800;SDS011;43627;42.728;23.256;2023-05-07T13:33:21;1.15;;;1.05;;
57800;SDS011;43627;42.728;23.256;2023-05-07T13:35:48;1.20;;;1.10;;
57800;SDS011;43627;42.728;23.256;2023-05-07T13:38:15;1.52;;;1.42;;
57800;SDS011;43627;42.728;23.256;2023-05-07T13:40:42;1.35;;;1.00;;
57800;SDS011;43627;42.728;23.256;2023-05-07T13:43:09;1.75;;;1.00;;
57800;SDS011;43627;42.728;23.256;2023-05-07T13:45:37;1.13;;;1.00;;
57800;SDS011;43627;42.728;23.256;2023-05-07T13:48:04;1.40;;;1.10;;
57800;SDS011;43627;42.728;23.256;2023-05-07T13:50:31;0.95;;;0.88;;
57800;SDS011;43627;42.728;23.256;2023-05-07T13:52:57;1.17;;;0.82;;
57800;SDS011;43627;42.728;23.256;2023-05-07T13:55:25;1.60;;;0.95;;
57800;SDS011;43627;42.728;23.256;2023-05-07T13:57:56;2.20;;;1.23;;
57800;SDS011;43627;42.728;23.256;2023-05-07T14:00:26;1.45;;;1.00;;
57800;SDS011;43627;42.728;23.256;2023-05-07T14:02:54;0.82;;;0.82;;
57800;SDS011;43627;42.728;23.256;2023-05-07T14:05:22;2.33;;;1.83;;
57800;SDS011;43627;42.728;23.256;2023-05-07T14:07:50;2.20;;;1.92;;
57800;SDS011;43627;42.728;23.256;2023-05-07T14:10:18;1.05;;;0.90;;
57800;SDS011;43627;42.728;23.256;2023-05-07T14:12:46;1.73;;;1.20;;
57800;SDS011;43627;42.728;23.256;2023-05-07T14:15:13;1.38;;;1.27;;
57800;SDS011;43627;42.728;23.256;2023-05-07T14:17:40;2.45;;;1.30;;
57800;SDS011;43627;42.728;23.256;2023-05-07T14:20:08;1.00;;;0.82;;
57800;SDS011;43627;42.728;23.256;2023-05-07T14:22:37;0.60;;;0.60;;
57800;SDS011;43627;42.728;23.256;2023-05-07T14:25:04;1.98;;;1.30;;
57800;SDS011;43627;42.728;23.256;2023-05-07T14:27:32;3.38;;;1.40;;
57800;SDS011;43627;42.728;23.256;2023-05-07T14:29:59;1.33;;;1.10;;
57800;SDS011;43627;42.728;23.256;2023-05-07T14:32:26;0.82;;;0.82;;
57800;SDS011;43627;42.728;23.256;2023-05-07T14:34:53;1.10;;;1.00;;
57800;SDS011;43627;42.728;23.256;2023-05-07T14:37:20;1.05;;;0.98;;
57800;SDS011;43627;42.728;23.256;2023-05-07T14:39:46;1.23;;;1.05;;
57800;SDS011;43627;42.728;23.256;2023-05-07T14:42:16;1.13;;;1.00;;
57800;SDS011;43627;42.728;23.256;2023-05-07T14:44:44;1.73;;;1.45;;
57800;SDS011;43627;42.728;23.256;2023-05-07T14:47:12;2.58;;;2.00;;
57800;SDS011;43627;42.728;23.256;2023-05-07T14:49:39;2.13;;;1.42;;
57800;SDS011;43627;42.728;23.256;2023-05-07T14:52:07;1.65;;;1.40;;
57800;SDS011;43627;42.728;23.256;2023-05-07T14:54:37;1.05;;;0.95;;
57800;SDS011;43627;42.728;23.256;2023-05-07T14:57:05;0.90;;;0.77;;
57800;SDS011;43627;42.728;23.256;2023-05-07T14:59:33;1.20;;;1.10;;